This is the latest recevied weather packets stored in our database for station/object OE-11372. If no packets are shown the sender has not sent any weather packets the latest 10 day(s).
| Time | Temp. | Humidity | Pressure | Rain* | Wind** | Luminosity | Snow |
|---|---|---|---|---|---|---|---|
| 1787623875 | 18.33° C | 55% | 849.1 hPa | 0 mm | - | 0 W/m² | - |
| 1787623502 | 18.89° C | 52% | 849.1 hPa | 0 mm | - | 0 W/m² | - |
| 1787622903 | 18.33° C | 52% | 849.3 hPa | 0 mm | - | 0 W/m² | - |
| 1787622076 | 18.89° C | 53% | 849.6 hPa | 0 mm | - | 0 W/m² | - |
| 1787621703 | 19.44° C | 50% | 849.9 hPa | 0 mm | - | 0 W/m² | - |
| 1787621103 | 18.89° C | 52% | 849.9 hPa | 0 mm | - | 0 W/m² | - |
| 1787620275 | 18.33° C | 54% | 849.8 hPa | 0 mm | - | 0 W/m² | - |
| 1787619903 | 18.33° C | 55% | 850 hPa | 0 mm | - | 0 W/m² | - |
| 1787619302 | 18.89° C | 53% | 850.1 hPa | 0 mm | - | 0 W/m² | - |
| 1787618475 | 18.33° C | 57% | 850.1 hPa | 0 mm | - | 0 W/m² | - |
| 1787618103 | 18.33° C | 56% | 850 hPa | 0 mm | - | 0 W/m² | - |
| 1787617503 | 18.89° C | 54% | 850.1 hPa | 0 mm | - | 0 W/m² | - |
| 1787616676 | 18.89° C | 55% | 850.2 hPa | 0 mm | - | 0 W/m² | - |
| 1787616303 | 18.89° C | 54% | 850.2 hPa | 0 mm | - | 0 W/m² | - |
| 1787615703 | 17.78° C | 60% | 850.3 hPa | 0 mm | - | 0 W/m² | - |
| 1787614875 | 16.67° C | 66% | 850.6 hPa | 0 mm | - | 0 W/m² | - |
| 1787614503 | 15.56° C | 73% | 850.5 hPa | 0 mm | - | 0 W/m² | - |
| 1787613903 | 16.11° C | 75% | 850.7 hPa | 0 mm | - | 0 W/m² | - |
| 1787613303 | 15° C | 82% | 851 hPa | 0 mm | - | 0 W/m² | - |
| 1787612702 | 15° C | 83% | 851.4 hPa | 0 mm | - | 0 W/m² | - |
| 1787612103 | 15.56° C | 81% | 851.8 hPa | 0 mm | - | 0 W/m² | - |
| 1787611276 | 16.11° C | 77% | 852.4 hPa | 0.25 mm | - | 0 W/m² | - |
| 1787610902 | 15.56° C | 85% | 852.4 hPa | 0.51 mm | - | 0 W/m² | - |
| 1787610303 | 15.56° C | 87% | 852.4 hPa | 0.51 mm | - | 0 W/m² | - |
| 1787609476 | 15.56° C | 88% | 852.4 hPa | 0.51 mm | - | 0 W/m² | - |
* Rain latest hour (hover to see other rain measurements)
** Current wind speed in m/s (hover to see current wind gust speed)